Kennicott — WCY2920 — position and weather

sailwx.info

Track history (hours):
 
Tides and Currents Weather Stations Pressure Air Temp Water Temp Dewpoint Dewpoint Depression Visibility Wind Speed Wind Dir Waves Ship Positions

Kennicott

Owner: ALASKA, STATE OF, Anchorage, AK. More information available from US FCC via Universal Licensing System and Coast Guard Vessel Documentation Center.

Last reported at 2017-Jun-26 00:09 UTC. Time now 2017-Jun-26 12:03 UTC.
Position N 52°26' W 128°28'.

Type: Ship. MMSI: 368250000.

Date/timePositionNaut miles runAvg speedWind from/ knotsBaromVisibWave heightAir tempDewpointWater temp
2017-Jun-26 00:09N 52°26' W 128°28'316.3
2017-Jun-26 00:00N 52°24' W 128°30'815.4
2017-Jun-25 23:30N 52°16' W 128°31'4 8.9
2017-Jun-25 23:00N 52°12' W 128°30'1337.9 270 / 201017.0 5.4 14.414.4
2017-Jun-25 22:39N 52°13' W 128°09'4 8.2
2017-Jun-25 22:09N 52°09' W 128°08'1 7.8
2017-Jun-25 22:00N 52°08' W 128°08'813.9
2017-Jun-25 21:24N 52°04' W 127°56'616.0
2017-Jun-25 21:01N 51°58' W 127°56'917.3
2017-Jun-25 20:31N 51°49' W 127°56'816.8
2017-Jun-25 20:01N 51°41' W 127°55'816.4
2017-Jun-25 19:30N 51°33' W 127°52'815.9
2017-Jun-25 19:00N 51°25' W 127°50'815.4
2017-Jun-25 18:30N 51°17' W 127°52'815.6
2017-Jun-25 18:00N 51°10' W 127°50'815.4
2017-Jun-25 17:30N 51°04' W 127°42'816.0
2017-Jun-25 17:00N 50°59' W 127°32'816.9
2017-Jun-25 16:30N 50°54' W 127°21'816.5
2017-Jun-25 16:00N 50°49' W 127°10'917.3
2017-Jun-25 15:30N 50°44' W 126°59'916.9
2017-Jun-25 14:59N 50°39' W 126°48'1117.7
2017-Jun-25 14:22N 50°31' W 126°36'1617.4
2017-Jun-25 13:28N 50°29' W 126°12'816.7
2017-Jun-25 13:00N 50°26' W 126°00'915.8
2017-Jun-25 12:26N 50°23' W 125°47'717.0
2017-Jun-25 12:00N 50°22' W 125°36'714.1
2017-Jun-25 11:29N 50°19' W 125°25'815.8
2017-Jun-25 11:00N 50°12' W 125°22'510.5
2017-Jun-25 10:31N 50°07' W 125°19'612.6
2017-Jun-25 10:00N 50°02' W 125°13'713.2
2017-Jun-25 09:30N 49°57' W 125°07'816.6
2017-Jun-25 09:00N 49°51' W 124°58'816.3
2017-Jun-25 08:30N 49°45' W 124°49'816.4
2017-Jun-25 08:00N 49°39' W 124°40'816.3
2017-Jun-25 07:30N 49°34' W 124°31'816.0
2017-Jun-25 07:00N 49°28' W 124°23'816.1
2017-Jun-25 06:30N 49°24' W 124°12'816.2
2017-Jun-25 06:00N 49°22' W 123°60'816.0
2017-Jun-25 05:30N 49°20' W 123°47'816.0
2017-Jun-25 05:00N 49°15' W 123°38'816.0
2017-Jun-25 04:30N 49°10' W 123°29'815.7
2017-Jun-25 04:00N 49°04' W 123°21'816.3
2017-Jun-25 03:30N 48°59' W 123°12'917.5
2017-Jun-25 03:00N 48°53' W 123°02'917.7
2017-Jun-25 02:30N 48°47' W 122°51'917.2
2017-Jun-25 02:01N 48°41' W 122°43'612.2
2017-Jun-25 01:30N 48°40' W 122°34'4 8.2
2017-Jun-25 01:00N 48°43' W 122°31'0 0.0
2017-Jun-25 00:21N 48°43' W 122°31'0 0.0
2017-Jun-24 23:45N 48°43' W 122°31'0 0.0
2017-Jun-24 23:21N 48°43' W 122°31'0 0.0
2017-Jun-24 22:51N 48°43' W 122°31'0 0.0
2017-Jun-24 22:24N 48°43' W 122°31'0 0.0
2017-Jun-24 21:54N 48°43' W 122°31'0 0.0
2017-Jun-24 21:21N 48°43' W 122°31'0 0.0
2017-Jun-24 21:00N 48°43' W 122°31'0 0.0
2017-Jun-24 20:30N 48°43' W 122°31'0 0.0
2017-Jun-24 19:54N 48°43' W 122°31'0 0.0
2017-Jun-24 19:30N 48°43' W 122°31'0 0.0
2017-Jun-24 18:51N 48°43' W 122°31'0 0.0
2017-Jun-24 18:21N 48°43' W 122°31'0 0.0
2017-Jun-24 17:54N 48°43' W 122°31'0 0.0
2017-Jun-24 17:30N 48°43' W 122°31'0 0.0
2017-Jun-24 16:54N 48°43' W 122°31'0 0.0
2017-Jun-24 16:30N 48°43' W 122°31'0 0.0
2017-Jun-24 16:00N 48°43' W 122°31'0 0.0
2017-Jun-24 15:30N 48°43' W 122°31'0 0.0
2017-Jun-24 15:00N 48°43' W 122°31'6 6.5
2017-Jun-24 14:00N 48°38' W 122°36'510.1
2017-Jun-24 13:30N 48°40' W 122°42'612.3
2017-Jun-24 13:00N 48°45' W 122°48'611.6
2017-Jun-24 12:29N 48°48' W 122°56'611.5
2017-Jun-24 12:00N 48°51' W 123°03'611.4
2017-Jun-24 11:30N 48°55' W 123°09'612.3
2017-Jun-24 11:01N 48°59' W 123°16'611.1
2017-Jun-24 10:30N 49°02' W 123°23'611.2
2017-Jun-24 09:59N 49°07' W 123°28'611.9
2017-Jun-24 09:30N 49°11' W 123°34'612.1
2017-Jun-24 09:00N 49°16' W 123°40'611.7
2017-Jun-24 08:30N 49°20' W 123°47'612.3
2017-Jun-24 08:00N 49°22' W 123°55'613.0
2017-Jun-24 07:30N 49°23' W 124°05'612.6
2017-Jun-24 07:00N 49°25' W 124°15'612.0
2017-Jun-24 06:30N 49°28' W 124°23'612.7
2017-Jun-24 06:00N 49°32' W 124°30'612.5
2017-Jun-24 05:30N 49°37' W 124°36'713.3
2017-Jun-24 05:00N 49°42' W 124°43'611.1
2017-Jun-24 04:30N 49°45' W 124°50'612.0
2017-Jun-24 04:00N 49°50' W 124°56'612.3
2017-Jun-24 03:30N 49°54' W 125°03'612.3
2017-Jun-24 03:00N 49°58' W 125°10'510.7
2017-Jun-24 02:30N 50°03' W 125°14'5 9.6
2017-Jun-24 02:00N 50°07' W 125°18'510.1
2017-Jun-24 01:30N 50°11' W 125°22'814.9
2017-Jun-24 01:00N 50°18' W 125°25'1015.6
2017-Jun-24 00:23N 50°22' W 125°39'2317.7
2017-Jun-23 23:06N 50°29' W 126°13'317.6
2017-Jun-23 22:55N 50°30' W 126°18'817.8
2017-Jun-23 22:29N 50°30' W 126°30'816.1
2017-Jun-23 22:00N 50°33' W 126°41'917.8
2017-Jun-23 21:30N 50°40' W 126°50'1018.7
2017-Jun-23 20:59N 50°46' W 127°02'918.2
2017-Jun-23 20:30N 50°51' W 127°14'918.3
2017-Jun-23 20:00N 50°55' W 127°26'917.4
2017-Jun-23 19:30N 51°01' W 127°36'917.7
2017-Jun-23 19:00N 51°07' W 127°47'816.8
2017-Jun-23 18:30N 51°14' W 127°53'917.7
2017-Jun-23 18:00N 51°23' W 127°51'918.0
2017-Jun-23 17:30N 51°32' W 127°52'917.9
2017-Jun-23 17:00N 51°41' W 127°55'918.2
2017-Jun-23 16:30N 51°50' W 127°56'918.1
2017-Jun-23 16:00N 51°59' W 127°56'713.7
2017-Jun-23 15:29N 52°05' W 128°03'612.2
2017-Jun-23 14:58N 52°10' W 128°08'911.1
2017-Jun-23 14:08N 52°15' W 128°21'215.9
2017-Jun-23 14:00N 52°15' W 128°24'815.7
2017-Jun-23 13:30N 52°14' W 128°37'612.2
2017-Jun-23 13:00N 52°16' W 128°47'916.5
2017-Jun-23 12:27N 52°25' W 128°50'  
2017-Jun-19 23:00N 59°24' W 149°18'   040 / 151005.0 5.4 13.313.3
Track history (hours):
 
Tides and Currents Weather Stations Pressure Air Temp Water Temp Dewpoint Dewpoint Depression Visibility Wind Speed Wind Dir Waves Ship Positions

Kennicott

Owner: ALASKA, STATE OF, Anchorage, AK. More information available from US FCC via Universal Licensing System and Coast Guard Vessel Documentation Center.

Last reported at 2017-Jun-26 00:09 UTC. Time now 2017-Jun-26 12:03 UTC.
Position N 52°26' W 128°28'.

Type: Ship. MMSI: 368250000.

Date/timePositionNaut miles runAvg speedWind from/ knotsBaromVisibWave heightAir tempDewpointWater temp
2017-Jun-26 00:09N 52°26' W 128°28'316.3
2017-Jun-26 00:00N 52°24' W 128°30'815.4
2017-Jun-25 23:30N 52°16' W 128°31'4 8.9
2017-Jun-25 23:00N 52°12' W 128°30'1337.9 270 / 201017.0 5.4 14.414.4
2017-Jun-25 22:39N 52°13' W 128°09'4 8.2
2017-Jun-25 22:09N 52°09' W 128°08'1 7.8
2017-Jun-25 22:00N 52°08' W 128°08'813.9
2017-Jun-25 21:24N 52°04' W 127°56'616.0
2017-Jun-25 21:01N 51°58' W 127°56'917.3
2017-Jun-25 20:31N 51°49' W 127°56'816.8
2017-Jun-25 20:01N 51°41' W 127°55'816.4
2017-Jun-25 19:30N 51°33' W 127°52'815.9
2017-Jun-25 19:00N 51°25' W 127°50'815.4
2017-Jun-25 18:30N 51°17' W 127°52'815.6
2017-Jun-25 18:00N 51°10' W 127°50'815.4
2017-Jun-25 17:30N 51°04' W 127°42'816.0
2017-Jun-25 17:00N 50°59' W 127°32'816.9
2017-Jun-25 16:30N 50°54' W 127°21'816.5
2017-Jun-25 16:00N 50°49' W 127°10'917.3
2017-Jun-25 15:30N 50°44' W 126°59'916.9
2017-Jun-25 14:59N 50°39' W 126°48'1117.7
2017-Jun-25 14:22N 50°31' W 126°36'1617.4
2017-Jun-25 13:28N 50°29' W 126°12'816.7
2017-Jun-25 13:00N 50°26' W 126°00'915.8
2017-Jun-25 12:26N 50°23' W 125°47'717.0
2017-Jun-25 12:00N 50°22' W 125°36'714.1
2017-Jun-25 11:29N 50°19' W 125°25'815.8
2017-Jun-25 11:00N 50°12' W 125°22'510.5
2017-Jun-25 10:31N 50°07' W 125°19'612.6
2017-Jun-25 10:00N 50°02' W 125°13'713.2
2017-Jun-25 09:30N 49°57' W 125°07'816.6
2017-Jun-25 09:00N 49°51' W 124°58'816.3
2017-Jun-25 08:30N 49°45' W 124°49'816.4
2017-Jun-25 08:00N 49°39' W 124°40'816.3
2017-Jun-25 07:30N 49°34' W 124°31'816.0
2017-Jun-25 07:00N 49°28' W 124°23'816.1
2017-Jun-25 06:30N 49°24' W 124°12'816.2
2017-Jun-25 06:00N 49°22' W 123°60'816.0
2017-Jun-25 05:30N 49°20' W 123°47'816.0
2017-Jun-25 05:00N 49°15' W 123°38'816.0
2017-Jun-25 04:30N 49°10' W 123°29'815.7
2017-Jun-25 04:00N 49°04' W 123°21'816.3
2017-Jun-25 03:30N 48°59' W 123°12'917.5
2017-Jun-25 03:00N 48°53' W 123°02'917.7
2017-Jun-25 02:30N 48°47' W 122°51'917.2
2017-Jun-25 02:01N 48°41' W 122°43'612.2
2017-Jun-25 01:30N 48°40' W 122°34'4 8.2
2017-Jun-25 01:00N 48°43' W 122°31'0 0.0
2017-Jun-25 00:21N 48°43' W 122°31'0 0.0
2017-Jun-24 23:45N 48°43' W 122°31'0 0.0
2017-Jun-24 23:21N 48°43' W 122°31'0 0.0
2017-Jun-24 22:51N 48°43' W 122°31'0 0.0
2017-Jun-24 22:24N 48°43' W 122°31'0 0.0
2017-Jun-24 21:54N 48°43' W 122°31'0 0.0
2017-Jun-24 21:21N 48°43' W 122°31'0 0.0
2017-Jun-24 21:00N 48°43' W 122°31'0 0.0
2017-Jun-24 20:30N 48°43' W 122°31'0 0.0
2017-Jun-24 19:54N 48°43' W 122°31'0 0.0
2017-Jun-24 19:30N 48°43' W 122°31'0 0.0
2017-Jun-24 18:51N 48°43' W 122°31'0 0.0
2017-Jun-24 18:21N 48°43' W 122°31'0 0.0
2017-Jun-24 17:54N 48°43' W 122°31'0 0.0
2017-Jun-24 17:30N 48°43' W 122°31'0 0.0
2017-Jun-24 16:54N 48°43' W 122°31'0 0.0
2017-Jun-24 16:30N 48°43' W 122°31'0 0.0
2017-Jun-24 16:00N 48°43' W 122°31'0 0.0
2017-Jun-24 15:30N 48°43' W 122°31'0 0.0
2017-Jun-24 15:00N 48°43' W 122°31'6 6.5
2017-Jun-24 14:00N 48°38' W 122°36'510.1
2017-Jun-24 13:30N 48°40' W 122°42'612.3
2017-Jun-24 13:00N 48°45' W 122°48'611.6
2017-Jun-24 12:29N 48°48' W 122°56'611.5
2017-Jun-24 12:00N 48°51' W 123°03'611.4
2017-Jun-24 11:30N 48°55' W 123°09'612.3
2017-Jun-24 11:01N 48°59' W 123°16'611.1
2017-Jun-24 10:30N 49°02' W 123°23'611.2
2017-Jun-24 09:59N 49°07' W 123°28'611.9
2017-Jun-24 09:30N 49°11' W 123°34'612.1
2017-Jun-24 09:00N 49°16' W 123°40'611.7
2017-Jun-24 08:30N 49°20' W 123°47'612.3
2017-Jun-24 08:00N 49°22' W 123°55'613.0
2017-Jun-24 07:30N 49°23' W 124°05'612.6
2017-Jun-24 07:00N 49°25' W 124°15'612.0
2017-Jun-24 06:30N 49°28' W 124°23'612.7
2017-Jun-24 06:00N 49°32' W 124°30'612.5
2017-Jun-24 05:30N 49°37' W 124°36'713.3
2017-Jun-24 05:00N 49°42' W 124°43'611.1
2017-Jun-24 04:30N 49°45' W 124°50'612.0
2017-Jun-24 04:00N 49°50' W 124°56'612.3
2017-Jun-24 03:30N 49°54' W 125°03'612.3
2017-Jun-24 03:00N 49°58' W 125°10'510.7
2017-Jun-24 02:30N 50°03' W 125°14'5 9.6
2017-Jun-24 02:00N 50°07' W 125°18'510.1
2017-Jun-24 01:30N 50°11' W 125°22'814.9
2017-Jun-24 01:00N 50°18' W 125°25'1015.6
2017-Jun-24 00:23N 50°22' W 125°39'2317.7
2017-Jun-23 23:06N 50°29' W 126°13'317.6
2017-Jun-23 22:55N 50°30' W 126°18'817.8
2017-Jun-23 22:29N 50°30' W 126°30'816.1
2017-Jun-23 22:00N 50°33' W 126°41'917.8
2017-Jun-23 21:30N 50°40' W 126°50'1018.7
2017-Jun-23 20:59N 50°46' W 127°02'918.2
2017-Jun-23 20:30N 50°51' W 127°14'918.3
2017-Jun-23 20:00N 50°55' W 127°26'917.4
2017-Jun-23 19:30N 51°01' W 127°36'917.7
2017-Jun-23 19:00N 51°07' W 127°47'816.8
2017-Jun-23 18:30N 51°14' W 127°53'917.7
2017-Jun-23 18:00N 51°23' W 127°51'918.0
2017-Jun-23 17:30N 51°32' W 127°52'917.9
2017-Jun-23 17:00N 51°41' W 127°55'918.2
2017-Jun-23 16:30N 51°50' W 127°56'918.1
2017-Jun-23 16:00N 51°59' W 127°56'713.7
2017-Jun-23 15:29N 52°05' W 128°03'612.2
2017-Jun-23 14:58N 52°10' W 128°08'911.1
2017-Jun-23 14:08N 52°15' W 128°21'215.9
2017-Jun-23 14:00N 52°15' W 128°24'815.7
2017-Jun-23 13:30N 52°14' W 128°37'612.2
2017-Jun-23 13:00N 52°16' W 128°47'916.5
2017-Jun-23 12:27N 52°25' W 128°50'  
2017-Jun-19 23:00N 59°24' W 149°18'   040 / 151005.0 5.4 13.313.3

Dump ship's entire track history